createdAt,value
2022-08-17T00:00:57.209Z,17.75
2022-08-17T00:03:31.939Z,17.64
2022-08-17T00:06:03.333Z,17.57
2022-08-17T00:08:31.344Z,17.52
2022-08-17T00:10:58.355Z,17.47
2022-08-17T00:13:32.910Z,17.45
2022-08-17T00:16:01.599Z,17.43
2022-08-17T00:19:06.228Z,17.40
2022-08-17T00:21:15.683Z,17.38
2022-08-17T00:23:50.608Z,17.36
2022-08-17T00:26:43.732Z,17.34
2022-08-17T00:29:04.979Z,17.32
2022-08-17T00:31:31.302Z,17.28
2022-08-17T00:33:57.629Z,17.26
2022-08-17T00:36:24.160Z,17.20
2022-08-17T00:38:51.206Z,17.16
2022-08-17T00:41:19.463Z,17.09
2022-08-17T00:44:07.769Z,17.08
2022-08-17T00:46:37.113Z,17.05
2022-08-17T00:49:03.717Z,17.00
2022-08-17T00:51:30.010Z,17.00
2022-08-17T00:54:25.521Z,17.05
2022-08-17T00:56:55.087Z,17.02
2022-08-17T00:59:22.971Z,16.99
2022-08-17T01:01:49.899Z,16.98
2022-08-17T01:04:18.091Z,16.95
2022-08-17T01:06:46.866Z,16.93
2022-08-17T01:09:13.489Z,16.89
2022-08-17T01:11:40.557Z,16.82
2022-08-17T01:14:08.861Z,16.78
2022-08-17T01:16:35.708Z,16.75
2022-08-17T01:19:06.470Z,16.70
2022-08-17T01:21:55.582Z,16.65
2022-08-17T01:24:22.016Z,16.64
2022-08-17T01:26:48.559Z,16.62
2022-08-17T01:29:15.972Z,16.60
2022-08-17T01:31:50.145Z,16.58
2022-08-17T01:34:17.728Z,16.66
2022-08-17T01:36:45.942Z,16.67
2022-08-17T01:39:18.296Z,16.69
2022-08-17T01:41:46.425Z,16.67
2022-08-17T01:44:14.067Z,16.65
2022-08-17T01:46:40.409Z,16.63
2022-08-17T01:49:08.135Z,16.62
2022-08-17T01:51:34.598Z,16.61
2022-08-17T01:54:05.190Z,16.55
2022-08-17T01:56:33.188Z,16.51
2022-08-17T01:58:59.588Z,16.53
2022-08-17T02:01:28.067Z,16.58
2022-08-17T02:04:00.480Z,16.53
2022-08-17T02:06:28.910Z,16.49
2022-08-17T02:09:02.362Z,16.45
2022-08-17T02:11:31.035Z,16.41
2022-08-17T02:14:03.297Z,16.36
2022-08-17T02:16:37.668Z,16.32
2022-08-17T02:19:06.075Z,16.28
2022-08-17T02:21:32.515Z,16.22
2022-08-17T02:23:59.154Z,16.22
2022-08-17T02:26:26.251Z,16.23
2022-08-17T02:28:53.546Z,16.22
2022-08-17T02:31:21.215Z,16.19
2022-08-17T02:33:47.536Z,16.15
2022-08-17T02:36:27.528Z,16.13
2022-08-17T02:38:53.972Z,16.14
2022-08-17T02:41:20.380Z,16.14
2022-08-17T02:43:46.761Z,16.13
2022-08-17T02:46:13.129Z,16.11
2022-08-17T02:48:39.964Z,16.08
2022-08-17T02:51:06.302Z,16.08
2022-08-17T02:53:35.996Z,16.09
2022-08-17T02:56:02.725Z,16.09
2022-08-17T02:58:34.580Z,16.08
2022-08-17T03:01:03.239Z,16.08
2022-08-17T03:03:29.603Z,16.05
2022-08-17T03:05:55.925Z,15.99
2022-08-17T03:08:23.224Z,15.94
2022-08-17T03:10:50.371Z,15.92
2022-08-17T03:13:16.884Z,15.89
2022-08-17T03:15:45.170Z,15.85
2022-08-17T03:18:24.234Z,15.81
2022-08-17T03:20:52.770Z,15.77
2022-08-17T03:23:19.140Z,15.68
2022-08-17T03:25:53.147Z,15.66
2022-08-17T03:28:20.386Z,15.63
2022-08-17T03:30:46.749Z,15.59
2022-08-17T03:33:13.118Z,15.60
2022-08-17T03:35:40.501Z,15.57
2022-08-17T03:38:08.010Z,15.57
2022-08-17T03:40:57.765Z,15.53
2022-08-17T03:43:21.795Z,15.53
2022-08-17T03:46:24.014Z,15.53
2022-08-17T03:49:11.833Z,15.50
2022-08-17T03:51:56.757Z,15.49
2022-08-17T03:54:41.541Z,15.46
2022-08-17T03:57:08.879Z,15.45
2022-08-17T03:59:35.980Z,15.45
2022-08-17T04:02:15.626Z,15.45
2022-08-17T04:04:41.941Z,15.47
2022-08-17T04:07:08.537Z,15.46
2022-08-17T04:09:34.929Z,15.45
2022-08-17T04:12:02.488Z,15.44
2022-08-17T04:14:36.145Z,15.45
2022-08-17T04:17:18.667Z,15.45
2022-08-17T04:19:46.449Z,15.45
2022-08-17T04:22:30.333Z,15.45
2022-08-17T04:24:59.434Z,15.44
2022-08-17T04:27:25.752Z,15.44
2022-08-17T04:29:55.137Z,15.45
2022-08-17T04:33:02.896Z,15.45
2022-08-17T04:35:10.157Z,15.49
2022-08-17T04:37:37.713Z,15.51
2022-08-17T04:40:27.580Z,15.55
2022-08-17T04:43:01.283Z,15.60
2022-08-17T04:45:32.030Z,15.63
2022-08-17T04:47:59.051Z,15.68
2022-08-17T04:50:25.552Z,15.76
2022-08-17T04:52:51.890Z,15.84
2022-08-17T04:55:18.295Z,15.89
2022-08-17T04:57:45.255Z,15.97
2022-08-17T05:00:11.865Z,16.06
2022-08-17T05:02:49.870Z,16.15
2022-08-17T05:05:20.926Z,16.17
2022-08-17T05:07:47.395Z,16.23
2022-08-17T05:10:13.765Z,16.34
2022-08-17T05:12:40.095Z,16.34
2022-08-17T05:15:10.530Z,16.36
2022-08-17T05:17:36.949Z,16.42
2022-08-17T05:20:03.706Z,16.47
2022-08-17T05:22:30.017Z,16.56
2022-08-17T05:24:56.353Z,16.62
2022-08-17T05:27:24.294Z,16.63
2022-08-17T05:29:55.630Z,16.68
2022-08-17T05:32:38.256Z,16.71
2022-08-17T05:35:06.818Z,16.75
2022-08-17T05:37:33.297Z,16.81
2022-08-17T05:39:59.658Z,16.85
2022-08-17T05:42:26.072Z,16.87
2022-08-17T05:44:52.375Z,16.93
2022-08-17T05:47:18.750Z,16.98
2022-08-17T05:49:45.085Z,17.10
2022-08-17T05:52:23.499Z,17.21
2022-08-17T05:55:07.809Z,17.29
2022-08-17T05:57:54.206Z,17.38
2022-08-17T06:00:30.049Z,17.50
2022-08-17T06:03:22.290Z,17.66
2022-08-17T06:05:54.006Z,17.85
2022-08-17T06:08:29.478Z,17.97
2022-08-17T06:11:05.016Z,18.07
2022-08-17T06:13:31.721Z,18.21
2022-08-17T06:16:31.118Z,18.36
2022-08-17T06:18:59.696Z,18.46
2022-08-17T06:21:30.472Z,18.65
2022-08-17T06:24:21.677Z,18.74
2022-08-17T06:26:48.149Z,18.86
2022-08-17T06:29:23.684Z,19.04
2022-08-17T06:31:50.956Z,19.29
2022-08-17T06:34:17.280Z,19.54
2022-08-17T06:37:03.715Z,19.77
2022-08-17T06:40:00.390Z,19.98
2022-08-17T06:42:54.943Z,20.05
2022-08-17T06:45:34.398Z,20.12
2022-08-17T06:48:00.729Z,20.19
2022-08-17T06:50:35.888Z,20.30
2022-08-17T06:53:20.985Z,20.23
2022-08-17T06:56:02.277Z,20.13
2022-08-17T06:58:31.282Z,20.28
2022-08-17T07:01:01.619Z,20.47
2022-08-17T07:03:30.794Z,20.55
2022-08-17T07:05:58.935Z,20.61
2022-08-17T07:08:35.323Z,20.72
2022-08-17T07:11:12.991Z,20.76
2022-08-17T07:13:39.336Z,20.73
2022-08-17T07:16:25.966Z,20.83
2022-08-17T07:18:53.223Z,20.77
2022-08-17T07:21:31.740Z,20.74
2022-08-17T07:24:29.384Z,20.44
2022-08-17T07:27:11.985Z,20.38
2022-08-17T07:29:43.921Z,20.41
2022-08-17T07:32:11.297Z,20.47
2022-08-17T07:34:56.508Z,20.41
2022-08-17T07:37:22.809Z,20.33
2022-08-17T07:40:15.550Z,20.45
2022-08-17T07:42:35.443Z,20.56
2022-08-17T07:45:22.819Z,20.51
2022-08-17T07:48:09.119Z,20.51
2022-08-17T07:50:35.523Z,20.76
2022-08-17T07:53:16.831Z,21.06
2022-08-17T07:55:45.191Z,21.44
2022-08-17T07:58:19.943Z,21.68
2022-08-17T08:01:02.043Z,21.81
2022-08-17T08:03:31.944Z,21.73
2022-08-17T08:06:02.484Z,21.75
2022-08-17T08:08:32.727Z,21.75
2022-08-17T08:10:59.171Z,21.89
2022-08-17T08:13:28.700Z,22.07
2022-08-17T08:16:13.853Z,22.11
2022-08-17T08:18:54.640Z,22.35
2022-08-17T08:21:24.301Z,22.61
2022-08-17T08:24:09.593Z,22.80
2022-08-17T08:26:46.380Z,22.92
2022-08-17T08:29:31.577Z,23.13
2022-08-17T08:32:17.844Z,23.28
2022-08-17T08:35:02.608Z,23.11
2022-08-17T08:37:42.908Z,22.94
2022-08-17T08:40:25.025Z,23.08
2022-08-17T08:42:57.463Z,23.36
2022-08-17T08:45:43.377Z,23.40
2022-08-17T08:48:53.305Z,23.50
2022-08-17T08:51:33.216Z,23.61
2022-08-17T08:54:04.255Z,23.77
2022-08-17T08:56:37.116Z,23.90
2022-08-17T08:59:20.226Z,23.88
2022-08-17T09:02:05.394Z,23.77
2022-08-17T09:05:02.739Z,23.85
2022-08-17T09:07:34.928Z,23.88
2022-08-17T09:10:19.602Z,23.96
2022-08-17T09:12:56.279Z,24.11
2022-08-17T09:15:32.041Z,24.31
2022-08-17T09:19:02.468Z,24.35
2022-08-17T09:21:01.274Z,24.52
2022-08-17T09:23:33.299Z,24.71
2022-08-17T09:26:22.901Z,24.73
2022-08-17T09:28:50.673Z,24.80
2022-08-17T09:31:20.236Z,25.01
2022-08-17T09:33:48.569Z,24.96
2022-08-17T09:36:18.680Z,25.05
2022-08-17T09:38:49.710Z,25.12
2022-08-17T09:41:33.924Z,25.23
2022-08-17T09:44:23.069Z,25.14
2022-08-17T09:46:55.563Z,25.17
2022-08-17T09:49:54.520Z,25.19
2022-08-17T09:52:23.205Z,25.29
2022-08-17T09:54:51.402Z,25.41
2022-08-17T09:57:30.409Z,25.56
2022-08-17T09:59:57.559Z,25.79
2022-08-17T10:02:44.307Z,25.89
2022-08-17T10:05:17.983Z,25.98
2022-08-17T10:08:02.760Z,26.28
2022-08-17T10:10:36.915Z,26.48
2022-08-17T10:13:09.770Z,26.67
2022-08-17T10:15:42.793Z,26.49
2022-08-17T10:18:33.116Z,26.63
2022-08-17T10:21:24.990Z,26.58
2022-08-17T10:24:13.234Z,26.85
2022-08-17T10:26:46.211Z,26.92
2022-08-17T10:29:28.967Z,26.84
2022-08-17T10:32:00.542Z,27.15
2022-08-17T10:34:41.126Z,27.17
2022-08-17T10:37:21.953Z,27.17
2022-08-17T10:40:00.455Z,27.44
2022-08-17T10:42:45.725Z,27.72
2022-08-17T10:45:21.109Z,27.97
2022-08-17T10:48:06.141Z,28.18
2022-08-17T10:50:46.200Z,28.73
2022-08-17T10:53:32.532Z,28.89
2022-08-17T10:56:14.231Z,28.48
2022-08-17T10:59:00.315Z,28.84
2022-08-17T11:01:37.947Z,28.82
2022-08-17T11:04:04.320Z,28.92
2022-08-17T11:06:37.187Z,29.43
2022-08-17T11:09:06.333Z,29.44
2022-08-17T11:11:51.462Z,29.85
2022-08-17T11:14:53.395Z,30.06
2022-08-17T11:17:30.039Z,30.42
2022-08-17T11:20:02.304Z,30.79
2022-08-17T11:22:33.325Z,30.66
2022-08-17T11:25:13.578Z,30.45
2022-08-17T11:27:40.254Z,29.73
2022-08-17T11:30:32.643Z,29.82
2022-08-17T11:33:00.161Z,29.86
2022-08-17T11:35:47.099Z,29.82
2022-08-17T11:38:29.439Z,30.00
2022-08-17T11:41:14.767Z,30.34
2022-08-17T11:43:46.975Z,30.02
2022-08-17T11:47:07.266Z,29.49
2022-08-17T11:49:55.083Z,29.32
2022-08-17T11:52:39.601Z,29.16
2022-08-17T11:55:33.857Z,29.26
2022-08-17T11:58:01.397Z,29.55
2022-08-17T12:00:46.811Z,30.09
2022-08-17T12:03:23.496Z,30.03
2022-08-17T12:05:53.424Z,29.95
2022-08-17T12:08:21.484Z,29.55
2022-08-17T12:11:08.054Z,29.28
2022-08-17T12:13:39.905Z,29.32
2022-08-17T12:16:07.198Z,29.49
2022-08-17T12:18:37.357Z,29.66
2022-08-17T12:21:06.310Z,29.37
2022-08-17T12:23:51.582Z,29.21
2022-08-17T12:26:20.808Z,28.96
2022-08-17T12:28:48.573Z,28.74
2022-08-17T12:31:21.494Z,28.64
2022-08-17T12:33:51.599Z,28.29
2022-08-17T12:36:24.789Z,28.15
2022-08-17T12:38:51.260Z,27.96
2022-08-17T12:41:29.312Z,27.72
2022-08-17T12:44:03.780Z,27.68
2022-08-17T12:46:44.679Z,27.78
2022-08-17T12:49:13.875Z,27.80
2022-08-17T12:51:44.511Z,27.57
2022-08-17T12:54:21.499Z,27.46
2022-08-17T12:56:47.884Z,27.30
2022-08-17T12:59:14.551Z,26.98
2022-08-17T13:01:56.242Z,26.94
2022-08-17T13:04:24.128Z,26.58
2022-08-17T13:06:59.889Z,26.36
2022-08-17T13:09:40.524Z,26.30
2022-08-17T13:12:07.771Z,26.40
2022-08-17T13:14:35.088Z,26.41
2022-08-17T13:17:02.124Z,26.47
2022-08-17T13:19:41.001Z,26.53
2022-08-17T13:22:10.304Z,26.48
2022-08-17T13:24:37.836Z,26.45
2022-08-17T13:27:10.390Z,26.33
2022-08-17T13:29:38.559Z,26.49
2022-08-17T13:32:11.545Z,26.47
2022-08-17T13:35:11.526Z,26.50
2022-08-17T13:37:35.169Z,26.23
2022-08-17T13:40:04.647Z,26.44
2022-08-17T13:42:33.044Z,26.42
2022-08-17T13:45:00.136Z,26.59
2022-08-17T13:47:26.877Z,26.75
2022-08-17T13:49:53.551Z,26.60
2022-08-17T13:52:39.499Z,26.67
2022-08-17T13:55:16.685Z,26.62
2022-08-17T13:57:47.906Z,26.54
2022-08-17T14:00:30.449Z,26.58
2022-08-17T14:02:57.985Z,26.30
2022-08-17T14:05:24.911Z,26.15
2022-08-17T14:07:59.080Z,25.60
2022-08-17T14:10:25.883Z,25.69
2022-08-17T14:12:52.821Z,25.41
2022-08-17T14:15:21.108Z,25.36
2022-08-17T14:17:49.117Z,25.21
2022-08-17T14:20:16.557Z,25.21
2022-08-17T14:22:44.497Z,25.20
2022-08-17T14:25:12.244Z,25.28
2022-08-17T14:27:43.268Z,25.36
2022-08-17T14:30:20.714Z,25.34
2022-08-17T14:32:51.763Z,25.29
2022-08-17T14:35:18.907Z,25.36
2022-08-17T14:37:45.785Z,25.23
2022-08-17T14:40:13.044Z,25.25
2022-08-17T14:42:40.498Z,25.36
2022-08-17T14:45:27.391Z,25.36
2022-08-17T14:47:55.241Z,25.36
2022-08-17T14:50:22.183Z,25.42
2022-08-17T14:52:49.082Z,25.51
2022-08-17T14:55:18.181Z,25.43
2022-08-17T14:57:44.715Z,25.50
2022-08-17T15:00:11.458Z,25.46
2022-08-17T15:02:45.805Z,25.43
2022-08-17T15:05:13.892Z,25.51
2022-08-17T15:07:40.438Z,25.49
2022-08-17T15:10:11.238Z,25.48
2022-08-17T15:12:37.744Z,25.43
2022-08-17T15:15:05.437Z,25.47
2022-08-17T15:17:44.446Z,25.39
2022-08-17T15:20:15.153Z,25.12
2022-08-17T15:22:42.069Z,25.16
2022-08-17T15:25:08.952Z,25.21
2022-08-17T15:27:35.383Z,25.13
2022-08-17T15:30:02.218Z,25.09
2022-08-17T15:32:30.929Z,25.21
2022-08-17T15:34:58.614Z,25.16
2022-08-17T15:37:25.345Z,25.32
2022-08-17T15:39:51.919Z,25.43
2022-08-17T15:42:18.935Z,25.36
2022-08-17T15:44:45.751Z,25.19
2022-08-17T15:47:12.806Z,24.92
2022-08-17T15:49:40.429Z,24.84
2022-08-17T15:52:20.686Z,24.78
2022-08-17T15:54:50.977Z,24.70
2022-08-17T15:57:17.744Z,24.73
2022-08-17T15:59:44.483Z,24.69
2022-08-17T16:03:01.027Z,24.65
2022-08-17T16:05:10.040Z,24.67
2022-08-17T16:07:37.162Z,24.78
2022-08-17T16:10:06.279Z,24.76
2022-08-17T16:12:33.910Z,24.79
2022-08-17T16:15:00.820Z,24.77
2022-08-17T16:17:40.192Z,24.63
2022-08-17T16:20:08.148Z,24.40
2022-08-17T16:22:36.078Z,24.45
2022-08-17T16:25:04.320Z,24.32
2022-08-17T16:27:30.772Z,24.38
2022-08-17T16:29:57.382Z,24.30
2022-08-17T16:32:31.692Z,24.22
2022-08-17T16:35:06.564Z,24.19
2022-08-17T16:37:34.235Z,24.11
2022-08-17T16:40:01.456Z,24.09
2022-08-17T16:42:30.216Z,23.93
2022-08-17T16:45:00.937Z,23.82
2022-08-17T16:47:27.271Z,23.76
2022-08-17T16:49:53.707Z,23.73
2022-08-17T16:52:32.670Z,23.72
2022-08-17T16:55:00.642Z,23.78
2022-08-17T16:57:27.729Z,23.70
2022-08-17T16:59:54.312Z,23.63
2022-08-17T17:02:31.799Z,23.65
2022-08-17T17:04:58.632Z,23.53
2022-08-17T17:07:34.326Z,23.41
2022-08-17T17:10:07.504Z,23.33
2022-08-17T17:13:00.928Z,23.25
2022-08-17T17:15:25.797Z,23.16
2022-08-17T17:17:58.125Z,23.11
2022-08-17T17:20:32.919Z,23.12
2022-08-17T17:23:08.963Z,23.10
2022-08-17T17:25:40.631Z,23.10
2022-08-17T17:28:18.034Z,23.15
2022-08-17T17:30:51.790Z,23.18
2022-08-17T17:33:21.170Z,23.18
2022-08-17T17:35:53.467Z,23.19
2022-08-17T17:38:22.844Z,23.16
2022-08-17T17:40:51.176Z,23.18
2022-08-17T17:43:37.667Z,23.10
2022-08-17T17:46:27.652Z,23.05
2022-08-17T17:48:56.195Z,22.95
2022-08-17T17:52:06.606Z,22.87
2022-08-17T17:54:08.811Z,22.82
2022-08-17T17:56:46.005Z,22.77
2022-08-17T17:59:20.989Z,22.74
2022-08-17T18:02:05.869Z,22.66
2022-08-17T18:04:36.593Z,22.59
2022-08-17T18:07:16.374Z,22.54
2022-08-17T18:10:02.626Z,22.48
2022-08-17T18:12:54.139Z,22.39
2022-08-17T18:15:29.164Z,22.33
2022-08-17T18:18:02.149Z,22.30
2022-08-17T18:20:32.503Z,22.28
2022-08-17T18:23:13.137Z,22.20
2022-08-17T18:25:39.536Z,22.17
2022-08-17T18:28:08.555Z,22.15
2022-08-17T18:30:34.994Z,22.11
2022-08-17T18:33:23.123Z,22.11
2022-08-17T18:35:58.491Z,22.09
2022-08-17T18:38:28.148Z,22.05
2022-08-17T18:41:02.616Z,22.02
2022-08-17T18:43:44.161Z,22.01
2022-08-17T18:46:28.293Z,21.96
2022-08-17T18:49:07.780Z,21.89
2022-08-17T18:51:41.864Z,21.88
2022-08-17T18:54:18.740Z,21.87
2022-08-17T18:56:49.904Z,21.84
2022-08-17T18:59:21.532Z,21.84
2022-08-17T19:02:01.903Z,21.83
2022-08-17T19:04:35.155Z,21.84
2022-08-17T19:07:03.265Z,21.81
2022-08-17T19:09:32.615Z,21.79
2022-08-17T19:12:00.432Z,21.75
2022-08-17T19:14:27.492Z,21.74
2022-08-17T19:16:57.269Z,21.73
2022-08-17T19:19:28.890Z,21.70
2022-08-17T19:22:02.783Z,21.67
2022-08-17T19:24:31.239Z,21.67
2022-08-17T19:27:06.382Z,21.67
2022-08-17T19:29:44.220Z,21.66
2022-08-17T19:32:12.333Z,21.68
2022-08-17T19:34:39.388Z,21.68
2022-08-17T19:37:09.524Z,21.67
2022-08-17T19:39:40.306Z,21.65
2022-08-17T19:42:13.027Z,21.66
2022-08-17T19:45:00.430Z,21.66
2022-08-17T19:47:57.178Z,21.71
2022-08-17T19:50:41.318Z,21.71
2022-08-17T19:53:20.075Z,21.70
2022-08-17T19:55:54.143Z,21.68
2022-08-17T19:58:23.369Z,21.66
2022-08-17T20:00:51.279Z,21.66
2022-08-17T20:03:34.713Z,21.70
2022-08-17T20:06:13.024Z,21.72
2022-08-17T20:08:52.314Z,21.67
2022-08-17T20:11:23.253Z,21.61
2022-08-17T20:13:58.496Z,21.50
2022-08-17T20:16:24.949Z,21.49
2022-08-17T20:19:03.503Z,21.59
2022-08-17T20:21:38.790Z,21.58
2022-08-17T20:24:19.834Z,20.85
2022-08-17T20:26:55.213Z,19.94
2022-08-17T20:29:45.012Z,19.16
2022-08-17T20:32:21.491Z,18.37
2022-08-17T20:34:48.152Z,18.14
2022-08-17T20:37:14.538Z,18.08
2022-08-17T20:39:43.787Z,17.99
2022-08-17T20:42:22.347Z,18.02
2022-08-17T20:44:50.621Z,18.03
2022-08-17T20:47:16.913Z,18.05
2022-08-17T20:49:44.483Z,18.03
2022-08-17T20:52:16.631Z,18.10
2022-08-17T20:54:53.975Z,18.11
2022-08-17T20:57:32.490Z,18.05
2022-08-17T20:59:59.314Z,18.06
2022-08-17T21:02:26.983Z,18.10
2022-08-17T21:04:54.328Z,18.07
2022-08-17T21:07:29.489Z,18.01
2022-08-17T21:10:28.207Z,17.99
2022-08-17T21:13:23.495Z,17.95
2022-08-17T21:16:00.349Z,17.89
2022-08-17T21:18:32.522Z,17.86
2022-08-17T21:21:17.880Z,17.87
2022-08-17T21:23:46.919Z,17.89
2022-08-17T21:26:13.267Z,17.87
2022-08-17T21:28:59.997Z,17.84
2022-08-17T21:31:34.482Z,17.76
2022-08-17T21:34:16.209Z,17.70
2022-08-17T21:36:43.478Z,17.65
2022-08-17T21:39:11.284Z,17.61
2022-08-17T21:41:52.805Z,17.59
2022-08-17T21:44:27.846Z,17.59
2022-08-17T21:47:11.305Z,17.60
2022-08-17T21:49:37.964Z,17.58
2022-08-17T21:52:05.516Z,17.58
2022-08-17T21:54:36.886Z,17.58
2022-08-17T21:57:05.604Z,17.56
2022-08-17T21:59:34.586Z,17.51
2022-08-17T22:02:06.058Z,17.51
2022-08-17T22:04:36.649Z,17.48
2022-08-17T22:07:04.410Z,17.49
2022-08-17T22:09:44.958Z,17.47
2022-08-17T22:12:19.246Z,17.43
2022-08-17T22:15:00.522Z,17.40
2022-08-17T22:17:35.727Z,17.35
2022-08-17T22:20:02.029Z,17.34
2022-08-17T22:23:15.705Z,17.30
2022-08-17T22:25:57.461Z,17.16
2022-08-17T22:28:42.420Z,17.11
2022-08-17T22:31:10.554Z,17.16
2022-08-17T22:33:40.880Z,17.21
2022-08-17T22:36:11.962Z,17.27
2022-08-17T22:38:40.594Z,17.26
2022-08-17T22:41:27.817Z,17.23
2022-08-17T22:43:57.347Z,17.29
2022-08-17T22:46:24.237Z,17.31
2022-08-17T22:48:53.734Z,17.25
2022-08-17T22:51:21.878Z,17.27
2022-08-17T22:54:08.559Z,17.26
2022-08-17T22:56:53.284Z,17.21
2022-08-17T22:59:33.521Z,17.24
2022-08-17T23:02:14.213Z,17.22
2022-08-17T23:04:43.435Z,17.25
2022-08-17T23:07:09.957Z,17.29
2022-08-17T23:09:36.750Z,17.32
2022-08-17T23:12:06.289Z,17.34
2022-08-17T23:14:36.444Z,17.38
2022-08-17T23:17:03.222Z,17.42
2022-08-17T23:19:31.593Z,17.48
2022-08-17T23:21:58.466Z,17.51
2022-08-17T23:24:29.081Z,17.56
2022-08-17T23:26:57.292Z,17.62
2022-08-17T23:29:24.403Z,17.63
2022-08-17T23:31:51.174Z,17.65
2022-08-17T23:34:18.469Z,17.69
2022-08-17T23:36:50.577Z,17.72
2022-08-17T23:39:24.415Z,17.73
2022-08-17T23:41:53.852Z,17.78
2022-08-17T23:44:23.333Z,17.79
2022-08-17T23:46:53.330Z,17.82
2022-08-17T23:49:20.137Z,17.83
2022-08-17T23:51:47.695Z,17.83
2022-08-17T23:54:13.990Z,17.82
2022-08-17T23:56:46.497Z,17.79
2022-08-17T23:59:13.901Z,17.77
